Whiting Field Naval Air Station North Airport
KNSE : now visible

Airfield :











YOU CAN JOIN US ON...

 
LOGIN :

Register | Disclaimer

   EN    FR    IT 

 









Legend :    VFR   Marginal VFR   IFR   Intensive IFR   Very Intensive IFR
Visi :
Ceiling :
>= 8 km
>= 3000ft
5 to 8 km
1000 to 3000 ft
1500m to 5 km
500 to 1000 ft
800 to 1500m
200 to 500 ft
< 800m
< 200 ft
Symbols :   Thunderstorms  Fog  Heavy snow  Heavy precipitations  Wind > 20 kt






- Airport Elevation : 199 ft


KNSE - Whiting Field Naval Air Station North

CURRENT METAR :
  • 271856Z VRB05KT 10SM OVC017 13/09 A2997 RMK AO2 SLP137 T01330094 $

EXPIRED METARs :
  • 271756Z 34008KT 320V030 10SM BKN018 BKN060 14/10 A2999 RMK AO2 SLP142 60000 T01440100 10150 20083 58009 $
  • 271719Z VRB06KT 10SM BKN015 BKN060 14/10 A3000 RMK AO2 T01440100 $
  • 271656Z VRB04KT 10SM FEW010 SCT013 BKN060 15/11 A3001 RMK AO2 SLP149 T01500106 $
  • 271629Z VRB03KT 10SM SCT010 SCT027 BKN060 14/11 A3001 RMK AO2 T01440106 $
  • 271556Z VRB04KT 10SM SCT012 BKN027 BKN060 12/09 A3002 RMK AO2 SLP152 T01220094 $

TAF TAF KNSE
Valid from the 27 at 15:00 until the 28 at 15:00 UTC


2715/2815 01008KT 9999 BKN025 BKN035 OVC050 NH2993INS
TEMPO 2715/2720 SCT005 BKN015
FM272200 01008KT 9999 SCT030 SCT050 QNH2990INS
FM280200 02006KT 9999 FEW030 QNH2996INS T18/2720Z T05/2812Z FN20071



MET'MAP, your aeronautical weather chart ! - Copyright ORBIFLY December 2007 - Disclaimer

ORBIFLY MET'MAP TEAM :

Programming & Development : Alexandra Zaïnal
Concept & original design : Baudouin d'Aumeries
Assistance for programming : Marc-Olivier Méhu
Technical & hardware support : Manuel Goepfert

Contact : metmap@orbifly.com




SOURCES & CREDITS :

   NOAA       Earth
Advisory